Pagrindinis puslapis
METAR-TAF:

METAR-TAF

Oro uostai :

Jakuiba, Bolivija

platuma: 21-57S, ilguma: 063-39W, Aukštis: 645 m

Dabartinis oras

Ataskaita buvo paskelbta 19 valandos ir 49 minutes, ne 19:00 UTC
Vėjas 8 kt iš Rytų/Šiaurės Rytų
Temperatūra 37°C
Drėgmė 40%
Slėgis 1001 hPa
Matomumas 10 km arba daugiau

METAR: SLYA 221900Z 06008KT 9999 NSC 37/21 Q1001

Laikas: 10:49 (14:49 UTC)

Prognozė

Ataskaita buvo paskelbta 28 valandos ir 49 minutes, ne 10:00 UTC
Prognozė galioja nuo 22 metu 12 UTC su 23 metu 12 UTC
Vėjas kt iš Šiaurės
Matomumas 10 km arba daugiau
Tapsmas
nuo 22 metu 10 UTC su 22 metu 12 UTC
Vėjas 10 kt iš Rytų/Šiaurės Rytų
Mažai debesys ne aukštis 2300 ft
Tapsmas
nuo 23 metu 02 UTC su 23 metu 04 UTC
Vėjas kt iš Šiaurės

TAF: SLYA 221000Z 2212/2312 00000KT 9999 NSC TX38/2219Z TN22/2311Z BECMG 2210/2212 06010KT FEW023 BECMG 2302/2304 00000KT

Orai ataskaitas ir orų prognozės (METAR, TAF).

turimą stotys yra geltonos ir raudonos taškus žemėlapyje.

Perkelti pele per norėdami pamatyti stoties vardą.

Tada spustelėkite, norėdami matyti oro stebėjimo ir prognozės.

Norėdami pakeisti žemėlapį: spustelėkite ant žalios mygtukų su juodo kryžiaus žemyn,; žalią mygtuką su brūkšneliu, jei norite nutolinti; arba žalių rodyklių gretimoms žemėlapius.


METAR-TAF: